Date,TemperatureHighF,TemperatureAvgF,TemperatureLowF,DewpointHighF,DewpointAvgF,DewpointLowF,HumidityHigh,HumidityAvg,HumidityLow,PressureMaxIn,PressureMinIn,WindSpeedMaxMPH,WindSpeedAvgMPH,GustSpeedMaxMPH,PrecipitationSumIn
2014-1-1,40.0,31.1,21.9,29.0,24.8,21.0,94,78,60,30.15,30.04,11,3,14,0.00
2014-1-2,21.2,14.6,3.7,20.0,10.3,0.0,94,83,70,30.52,30.10,14,6,21,0.00
2014-1-3,28.0,14.4,-3.7,16.0,7.5,-7.0,91,76,60,30.53,30.00,10,3,18,0.00
2014-1-4,46.3,34.7,23.9,32.0,24.6,16.0,88,67,52,30.00,29.88,10,3,14,0.01
2014-1-5,27.0,14.9,1.2,24.0,10.5,-16.0,94,83,44,30.38,29.91,26,9,30,0.00
2014-1-6,0.8,-4.9,-9.4,-13.0,-15.7,-19.0,75,60,49,30.55,30.37,15,5,22,0.00
2014-1-7,21.3,7.4,-9.1,12.0,-0.6,-15.0,82,71,53,30.52,30.23,7,2,12,0.00
2014-1-8,24.0,17.5,12.3,13.0,10.7,8.0,85,75,62,30.48,30.27,7,2,9,0.00
2014-1-9,32.7,24.7,16.0,32.0,22.5,11.0,97,91,80,30.46,30.16,6,2,9,0.00
2014-1-10,44.7,38.4,32.7,45.0,37.9,32.0,99,98,96,30.14,29.53,9,3,17,0.42
2014-1-11,47.1,40.0,34.1,44.0,35.3,30.0,100,84,61,29.92,29.52,10,2,15,0.43
2014-1-12,59.5,43.0,27.2,38.0,33.1,26.0,97,71,41,29.93,29.61,9,2,16,0.00
2014-1-13,53.2,44.3,27.6,38.0,34.6,27.0,96,70,52,29.86,29.57,11,2,21,0.00
2014-1-14,44.5,34.7,27.5,36.0,25.5,15.0,97,71,45,30.09,29.72,15,5,28,0.01
2014-1-15,27.4,23.6,19.1,18.0,14.1,11.0,80,67,57,30.22,29.95,12,4,20,0.00
2014-1-16,44.7,33.7,22.7,32.0,25.4,12.0,92,72,58,29.93,29.70,17,4,28,0.01
2014-1-17,22.3,16.2,12.7,15.0,9.5,4.0,89,75,66,30.13,29.89,15,4,21,0.01
2014-1-18,42.7,28.3,12.7,36.0,22.0,9.0,92,78,55,30.09,29.66,17,4,31,0.03
2014-1-19,51.4,36.2,21.1,30.0,24.0,18.0,87,64,41,30.07,29.75,11,3,18,0.03
2014-1-20,48.7,42.1,34.1,33.0,31.1,28.0,79,66,49,29.95,29.76,10,2,13,0.00
2014-1-21,37.9,14.4,9.2,33.0,7.9,2.0,95,76,60,30.41,29.92,20,6,32,0.00
2014-1-22,29.2,19.9,7.8,17.0,11.0,-2.0,78,69,57,30.40,30.06,19,5,25,0.00
2014-1-23,11.8,5.5,-0.1,-1.0,-3.6,-7.0,77,66,56,30.77,30.41,14,6,26,0.00
2014-1-24,37.0,20.8,1.0,17.0,5.1,-3.0,83,54,32,30.74,29.73,12,3,22,0.00
2014-1-25,42.0,33.8,21.6,34.0,16.3,-2.0,92,51,23,29.99,29.65,20,6,37,0.00
2014-1-26,54.7,42.0,21.0,35.0,25.6,6.0,75,53,38,30.05,29.57,29,6,40,0.00
2014-1-27,20.4,10.5,3.5,6.0,-5.1,-7.0,64,50,35,30.55,30.06,20,7,30,0.00
2014-1-28,17.6,7.3,-3.4,-1.0,-4.2,-8.0,85,61,38,30.59,30.40,8,1,14,0.00
2014-1-29,35.5,20.7,4.8,10.0,5.0,-2.0,77,53,33,30.40,30.09,12,2,16,0.00
2014-1-30,44.8,34.7,23.2,26.0,14.8,9.0,71,45,29,30.09,29.77,16,3,22,0.00
2014-1-31,33.6,26.9,23.8,26.0,22.0,17.0,96,82,71,30.14,29.97,9,3,12,0.00
2014-2-1,32.4,28.7,24.7,32.0,28.1,24.0,99,97,96,30.14,29.76,7,3,27,0.00
2014-2-2,24.8,16.0,9.1,24.0,13.8,7.0,96,90,85,30.38,30.14,12,4,13,0.00
2014-2-3,25.9,14.3,1.7,22.0,11.0,-1.0,91,86,78,30.48,30.34,5,1,7,0.00
2014-2-4,23.5,21.1,18.2,23.0,19.6,16.0,96,94,90,30.36,29.99,9,3,16,0.00
2014-2-5,19.8,16.3,7.6,19.0,12.6,2.0,95,85,77,30.62,30.00,14,7,18,0.01
2014-2-6,12.0,3.8,-4.6,1.0,-3.5,-8.0,87,72,56,30.67,30.54,12,2,12,0.00
2014-2-7,19.9,6.6,-10.6,9.0,-1.2,-14.0,89,72,49,30.57,30.36,7,1,8,0.00
2014-2-8,29.4,22.0,14.4,20.0,16.4,9.0,90,79,65,30.35,30.14,6,2,8,0.00
2014-2-9,25.0,21.8,14.6,21.0,16.1,4.0,88,79,64,30.41,30.17,9,4,14,0.00
2014-2-10,14.3,7.6,1.1,6.0,-0.9,-4.0,78,69,56,30.56,30.40,11,4,16,0.00
2014-2-11,24.0,8.4,-5.4,7.0,-1.3,-9.0,85,66,45,30.59,30.38,4,1,6,0.00
2014-2-12,37.0,18.4,0.3,15.0,6.5,-3.0,88,63,30,30.38,30.02,3,1,6,0.00
2014-2-13,47.4,32.7,12.3,31.0,22.7,7.0,87,68,48,30.04,29.69,8,2,17,0.01
2014-2-14,35.1,23.8,13.2,30.0,20.3,8.0,94,86,79,30.11,29.63,11,4,21,0.00
2014-2-15,28.2,18.8,4.2,23.0,13.2,1.0,91,79,66,30.19,29.95,11,2,15,0.00
2014-2-16,35.6,29.0,25.2,27.0,23.7,21.0,86,80,69,30.26,29.98,16,4,18,0.01
2014-2-17,43.3,33.7,24.3,37.0,28.8,20.0,96,83,65,30.15,29.78,15,4,23,0.04
2014-2-18,61.9,48.3,32.5,35.0,30.6,26.0,79,53,28,30.02,29.69,12,2,18,0.04
2014-2-19,50.4,44.7,36.0,39.0,36.1,32.0,85,72,57,30.04,29.72,12,3,19,0.00
2014-2-20,71.0,50.4,37.4,61.0,43.3,-99.9,97,79,59,29.71,29.18,24,-5,38,0.08
2014-2-21,54.7,43.0,32.1,31.0,22.6,18.0,76,46,29,29.93,29.64,18,5,32,0.00
2014-2-22,56.2,42.2,32.3,37.0,29.2,23.0,94,63,34,30.07,29.89,10,2,17,0.06
2014-2-23,36.2,29.1,21.8,30.0,19.3,14.0,92,68,43,30.36,30.06,8,3,16,0.06
2014-2-24,34.0,26.7,19.0,21.0,16.8,14.0,85,67,48,30.41,30.25,9,2,11,0.00
2014-2-25,27.2,23.6,16.0,21.0,16.2,3.0,85,73,57,30.37,30.25,16,5,20,0.00
2014-2-26,26.4,17.5,7.6,12.0,2.4,-6.0,70,53,33,30.40,29.94,15,5,20,0.00
2014-2-27,25.8,21.0,16.3,17.0,4.3,-5.0,74,50,33,30.21,29.93,16,5,21,0.00
2014-2-28,45.0,31.2,15.8,24.0,15.2,6.0,73,54,34,30.14,29.92,14,5,20,0.00
2014-3-1,40.0,31.4,21.2,27.0,24.4,19.0,93,76,54,30.29,30.01,11,4,15,0.00
2014-3-2,20.6,11.0,4.1,19.0,6.7,-5.0,92,83,66,30.48,30.27,14,6,20,0.00
2014-3-3,22.5,10.8,-1.1,9.0,1.4,-8.0,74,66,48,30.58,30.36,10,4,15,0.00
2014-3-4,40.0,26.1,10.5,20.0,14.1,7.0,89,63,36,30.36,30.13,10,2,11,0.01
2014-3-5,42.0,32.4,25.9,27.0,22.2,17.0,86,67,50,30.32,30.14,10,4,14,0.01
2014-3-6,46.7,33.2,23.2,28.0,24.4,21.0,91,72,46,30.31,30.06,6,2,9,0.00
2014-3-7,61.2,43.9,25.9,35.0,29.8,23.0,91,61,34,30.07,29.86,8,2,12,0.00
2014-3-8,43.2,37.0,34.1,35.0,33.7,32.0,93,88,69,30.31,29.97,10,4,14,0.00
2014-3-9,58.5,41.9,23.9,34.0,30.9,23.0,97,69,38,30.32,29.98,10,2,11,0.00
2014-3-10,77.0,57.6,41.6,41.0,37.2,32.0,84,52,23,29.98,29.66,11,2,13,0.00
2014-3-11,80.8,60.4,40.7,53.0,43.5,35.0,92,57,30,29.69,29.40,15,3,23,0.09
2014-3-12,42.7,36.8,33.3,39.0,28.4,-99.9,98,75,53,30.15,29.52,19,-2,29,0.01
2014-3-13,65.2,43.4,23.3,37.0,29.7,21.0,93,63,29,30.18,29.90,10,2,14,0.00
2014-3-14,64.2,54.9,42.9,37.0,31.6,28.0,56,42,31,29.98,29.78,11,4,21,0.00
2014-3-15,70.6,51.6,33.1,40.0,31.8,26.0,77,51,25,30.04,29.86,18,4,25,0.00
2014-3-16,44.0,32.4,25.0,36.0,21.6,15.0,77,65,50,30.13,29.94,23,8,28,0.00
2014-3-17,47.3,32.2,17.4,28.0,18.5,14.0,88,61,28,30.11,29.77,7,2,12,0.00
2014-3-18,59.5,46.5,34.8,43.0,36.4,27.0,90,70,49,29.79,29.54,18,6,30,0.00
2014-3-19,50.7,44.4,31.8,45.0,37.6,27.0,88,77,59,30.13,29.59,16,4,26,0.04
2014-3-20,67.7,49.1,28.8,36.0,30.3,26.0,94,56,25,30.12,29.89,10,2,18,0.00
2014-3-21,76.9,59.4,46.6,40.0,34.0,30.0,63,41,18,29.97,29.68,13,4,24,0.00
2014-3-22,50.4,39.2,34.9,38.0,28.1,19.0,81,65,48,30.34,29.97,13,5,22,0.00
2014-3-23,38.7,31.7,25.3,19.0,14.7,10.0,69,51,32,30.49,30.34,17,5,17,0.00
2014-3-24,40.6,32.7,25.3,29.0,18.2,11.0,89,57,36,30.39,30.17,5,1,10,0.00
2014-3-25,36.8,32.1,24.2,31.0,19.2,10.0,90,61,39,30.31,30.14,18,6,26,0.00
2014-3-26,52.0,37.1,17.5,30.0,17.8,10.0,78,49,28,30.34,29.98,12,3,21,0.00
2014-3-27,58.6,49.9,38.3,54.0,43.5,30.0,91,79,60,29.97,29.52,13,4,22,0.15
2014-3-28,51.6,43.5,39.3,44.0,37.6,35.0,86,80,70,30.13,29.65,14,4,19,0.15
2014-3-29,45.6,40.2,32.5,37.0,34.7,29.0,92,81,66,30.26,30.09,14,4,17,0.00
2014-3-30,66.9,48.0,29.0,41.0,35.9,28.0,97,68,36,30.27,30.00,11,3,16,0.00
2014-3-31,69.9,57.7,47.0,46.0,42.2,40.0,81,59,34,30.01,29.70,16,5,23,0.00
2014-4-1,58.7,48.2,35.9,48.0,34.1,23.0,93,61,37,30.08,29.82,15,4,22,0.28
2014-4-2,53.0,47.8,43.5,52.0,46.6,42.0,98,95,85,30.07,29.82,18,4,25,0.04
2014-4-3,61.8,56.7,50.0,60.0,56.1,50.0,100,98,88,29.81,29.57,18,4,24,1.37
2014-4-4,57.7,45.0,39.8,56.0,38.4,32.0,99,78,65,30.13,29.53,16,6,35,1.37
2014-4-5,55.7,45.4,33.1,38.0,33.4,29.0,84,64,46,30.24,30.11,9,2,13,0.00
2014-4-6,59.1,48.4,36.0,39.0,36.5,33.0,89,66,42,30.12,29.86,10,2,15,0.00
2014-4-7,57.9,49.8,46.1,46.0,41.3,35.0,89,74,43,29.84,29.66,7,1,12,0.01
2014-4-8,51.3,49.6,47.7,46.0,44.5,43.0,89,83,75,29.82,29.73,9,2,16,0.04
2014-7-5,82.8,76.2,70.9,70.0,66.5,65.0,84,72,63,30.10,30.00,3,1,12,0.00
2014-7-6,91.6,77.7,67.6,77.0,69.8,65.0,92,78,57,30.02,29.80,5,1,10,0.00
2014-7-7,93.8,79.9,73.9,84.0,74.3,69.0,98,83,67,29.84,29.65,6,1,10,0.24
2014-7-8,83.2,74.9,65.8,74.0,67.8,63.0,99,80,57,29.90,29.62,10,2,25,0.77
2014-7-9,81.6,71.8,61.6,69.0,64.4,59.0,98,79,54,30.03,29.90,8,1,11,0.00
2014-7-10,82.3,71.7,58.3,68.0,61.6,58.0,98,73,49,30.12,30.02,6,2,9,0.00
2014-7-11,89.9,78.0,66.2,76.0,68.2,58.0,84,72,61,30.13,30.00,12,2,12,0.00
2014-7-12,97.4,84.3,76.9,80.0,75.7,73.0,92,77,53,30.04,29.91,3,1,10,0.00
2014-7-13,91.0,80.5,73.1,79.0,74.2,72.0,98,81,65,29.95,29.85,7,1,10,0.00
2014-7-14,86.8,75.3,67.3,77.0,68.8,58.0,100,81,56,29.96,29.80,10,2,22,0.02
2014-7-15,73.1,64.7,54.2,58.0,55.1,52.0,94,72,55,30.02,29.95,9,3,14,0.02
2014-7-16,77.7,65.2,52.5,64.0,56.9,52.0,99,77,49,30.05,29.98,6,1,13,0.00
2014-7-17,82.9,69.0,55.1,67.0,59.9,55.0,99,75,46,30.09,30.01,4,0,6,0.00
2014-7-18,79.7,70.2,60.2,64.0,60.2,56.0,97,73,46,30.10,30.01,9,2,13,0.00
2014-7-19,83.6,70.5,57.7,67.0,61.4,56.0,97,75,49,30.04,29.96,5,0,6,0.00
2014-7-20,85.5,73.2,59.7,70.0,64.9,59.0,99,77,51,30.02,29.94,6,1,9,0.00
2014-7-21,90.0,76.9,62.4,74.0,68.6,61.0,97,77,55,30.06,29.97,5,1,8,0.00
2014-7-22,92.3,79.6,67.2,81.0,73.7,66.0,97,83,66,30.04,29.92,5,0,6,0.00
2014-7-23,81.9,76.8,64.9,76.0,71.7,62.0,98,85,67,30.07,29.93,10,2,12,0.00
2014-7-24,80.2,69.0,57.8,62.0,58.6,54.0,91,71,49,30.12,29.99,9,2,12,0.00
2014-7-25,80.0,68.3,59.2,69.0,63.4,57.0,95,84,66,30.09,29.80,6,1,15,0.16
2014-7-26,95.0,78.8,70.8,80.0,73.7,68.0,99,85,61,29.84,29.75,7,1,12,0.04
2014-7-27,87.6,78.6,68.8,76.0,69.5,62.0,100,76,45,29.96,29.75,11,3,21,0.05
2014-7-28,75.3,68.3,55.3,66.0,61.2,53.0,93,79,63,30.10,29.96,7,2,15,0.00
2014-7-29,78.2,65.8,53.6,65.0,58.8,53.0,99,80,54,30.13,30.02,7,1,8,0.00
2014-7-30,82.5,70.5,56.2,72.0,60.7,56.0,99,74,45,30.07,30.00,4,0,6,0.00
2014-7-31,85.0,72.4,59.3,69.0,62.9,58.0,99,75,46,30.06,29.99,5,1,6,0.00
2014-8-1,82.8,70.0,61.1,72.0,65.7,59.0,98,87,63,30.06,30.01,3,0,6,0.05
2014-8-2,84.5,71.9,60.0,72.0,66.2,60.0,100,84,59,30.13,30.05,5,1,9,0.06
2014-8-3,85.4,73.4,60.3,71.0,64.6,60.0,99,77,43,30.15,30.02,5,1,7,0.00
2014-8-4,89.4,76.2,62.1,73.0,67.4,61.0,98,76,53,30.08,29.95,4,1,7,0.00
2014-8-5,86.5,76.9,69.2,76.0,71.6,64.0,98,84,67,29.99,29.93,3,1,9,0.09
2014-8-6,85.9,75.6,68.0,74.0,70.2,67.0,99,84,60,30.03,29.92,5,2,9,0.00
2014-8-7,73.2,70.8,70.0,72.0,70.3,69.0,100,98,90,29.94,29.79,16,3,18,0.90
2014-8-8,78.5,73.1,70.7,76.0,72.3,70.0,100,97,86,29.92,29.83,6,1,9,1.17
2014-8-9,76.1,71.7,68.6,73.0,70.6,69.0,100,96,89,29.98,29.91,3,1,5,0.09
2014-8-10,80.6,73.4,69.4,74.0,71.1,69.0,100,92,78,29.98,29.89,5,1,7,0.00
2014-8-11,84.4,74.3,65.2,74.0,69.6,63.0,100,86,65,29.93,29.84,10,2,14,0.00
2014-8-12,77.9,68.8,58.4,65.0,61.3,57.0,97,79,52,30.00,29.89,12,2,18,0.00
2014-8-13,83.7,67.6,55.2,67.0,59.7,55.0,100,79,46,30.10,30.00,6,1,11,0.00
2014-8-14,84.1,71.1,56.7,73.0,64.1,55.0,100,81,55,30.07,29.96,4,0,6,0.00
2014-8-15,81.6,72.2,62.7,76.0,68.9,62.0,100,90,73,30.00,29.89,5,1,9,0.21
2014-8-16,76.7,71.3,67.4,73.0,70.2,67.0,99,96,84,29.91,29.76,5,1,8,0.33
2014-8-17,75.4,70.2,70.2,73.0,69.6,70.0,100,95,92,29.88,29.76,6,1,11,0.46
2014-8-18,89.3,71.3,69.8,76.0,67.3,70.0,100,81,61,29.88,29.76,5,1,8,0.00
2014-8-19,88.5,67.2,67.7,77.0,64.3,67.0,100,80,69,29.84,29.72,13,1,15,0.35
2014-8-20,90.6,67.9,69.6,81.0,64.5,69.0,100,76,69,29.92,29.78,7,1,11,0.02
2014-8-21,96.2,72.8,72.1,83.0,67.3,72.0,99,72,61,29.94,29.84,5,1,8,0.02
2014-8-22,93.1,73.1,76.7,85.0,67.4,71.0,97,70,66,29.95,29.85,4,1,11,0.00
2014-8-23,97.8,76.4,76.2,83.0,70.2,76.0,100,72,59,29.91,29.81,5,0,8,0.00
2014-8-24,98.0,77.7,75.3,82.0,70.6,75.0,99,71,52,29.91,29.84,4,1,8,0.00
2014-8-25,100.1,75.7,79.2,82.0,68.2,77.0,99,66,51,29.97,29.89,4,0,8,0.00
2014-8-26,98.4,73.7,75.7,83.0,67.3,72.0,100,68,58,30.06,29.95,10,1,22,0.00
2014-8-27,89.4,69.4,69.6,80.0,64.7,68.0,99,74,69,30.07,29.98,18,2,19,0.69
2014-8-28,93.2,68.6,68.1,79.0,64.3,68.0,100,75,62,30.01,29.87,9,2,17,0.13
2014-8-29,91.0,74.6,72.2,77.0,68.5,70.0,98,77,53,29.92,29.77,6,1,16,0.05
2014-8-30,85.6,66.8,71.7,78.0,63.1,70.0,99,74,75,29.89,29.82,6,1,8,0.05
2014-8-31,94.6,71.8,70.2,77.0,66.1,70.0,100,74,55,29.92,29.80,5,1,8,0.00
2014-9-1,86.2,63.6,69.0,74.0,58.7,66.0,99,69,64,29.89,29.67,11,1,13,1.58
2014-9-2,81.9,63.5,67.2,75.0,60.9,67.0,100,78,73,29.98,29.81,4,1,10,3.42
2014-9-3,89.5,67.4,65.6,76.0,63.4,65.0,100,76,65,30.01,29.88,4,1,9,0.00
2014-9-4,95.4,73.1,71.2,81.0,66.2,69.0,94,68,61,29.95,29.88,7,1,11,0.00
2014-9-5,94.6,69.3,64.3,81.0,64.1,64.0,99,72,61,30.11,29.87,11,1,20,0.58
2014-9-6,73.5,52.1,59.4,64.0,48.5,57.0,98,69,64,30.17,30.05,6,1,10,0.58
2014-9-7,79.0,57.3,55.0,61.0,48.9,53.0,97,64,46,30.20,30.05,6,1,10,0.01
2014-9-8,83.5,61.2,56.1,66.0,53.2,55.0,99,64,51,30.09,29.93,6,1,9,0.00
2014-9-9,86.2,62.5,64.9,77.0,58.8,60.0,99,74,68,29.95,29.71,14,2,18,1.46
2014-9-10,83.2,61.2,65.5,78.0,59.6,63.0,99,77,83,29.87,29.61,8,2,16,0.07
2014-9-11,65.4,46.9,53.8,63.0,44.4,51.0,94,71,84,30.24,29.87,10,2,16,0.07
2014-9-12,56.5,43.4,49.5,53.0,41.3,47.0,97,74,86,30.33,30.21,9,2,15,0.00
2014-9-13,66.2,45.7,44.5,49.0,39.1,43.0,98,66,50,30.39,30.26,7,1,12,0.01
2014-9-14,72.7,51.6,42.7,56.0,44.6,42.0,100,70,48,30.30,30.14,4,1,7,0.00
2014-9-15,75.3,55.1,55.2,67.0,52.5,52.0,98,78,75,30.15,30.01,7,1,13,0.03
2014-9-16,69.4,43.3,50.0,59.0,40.8,50.0,100,66,62,30.20,30.06,5,0,8,0.03
2014-9-17,62.0,51.7,49.3,60.0,50.5,49.0,100,86,86,30.06,29.91,12,1,14,0.06
2014-9-18,74.1,52.6,56.6,60.0,47.5,55.0,96,67,57,30.06,29.95,8,1,11,0.00
2014-9-19,80.1,59.8,55.3,65.0,53.1,54.0,96,70,55,30.08,29.95,9,1,11,0.00
2014-9-20,85.2,65.5,59.5,75.0,60.9,59.0,99,74,69,30.00,29.84,5,1,10,0.00
2014-9-21,75.2,59.7,55.3,70.0,50.0,52.0,97,60,45,30.14,29.84,13,2,17,0.00
2014-9-22,74.7,53.5,50.0,56.0,47.1,49.0,98,71,49,30.29,30.14,4,1,9,0.00
2014-9-23,74.6,54.3,48.4,58.0,46.9,47.0,99,66,46,30.32,30.19,6,1,10,0.00
2014-9-24,78.7,59.1,52.7,60.0,49.2,50.0,91,62,43,30.28,30.16,6,1,8,0.00
2014-9-25,84.5,62.2,59.6,65.0,53.4,54.0,94,63,50,30.24,30.11,4,0,6,0.00
2014-9-26,84.8,63.9,62.0,66.0,55.1,59.0,95,64,48,30.18,30.09,6,1,10,0.00
2014-9-27,84.8,69.4,57.2,69.0,61.1,56.0,99,77,45,30.16,30.05,9,1,9,0.00
2014-9-28,86.7,69.0,57.0,68.0,60.8,56.0,99,78,41,30.11,30.00,4,0,5,0.00
2014-9-29,88.0,68.8,56.0,67.0,61.2,55.0,99,80,45,30.04,29.91,6,0,6,0.00
2014-9-30,83.7,70.2,56.4,68.0,62.0,56.0,100,78,50,29.93,29.82,5,1,8,0.00
2014-10-1,86.7,71.4,61.4,69.0,64.7,60.0,99,81,56,29.86,29.71,10,3,19,2.56
2014-10-2,74.2,66.7,63.6,71.0,66.2,63.0,100,98,88,29.87,29.54,10,2,16,0.93
2014-10-3,64.5,54.6,44.6,64.0,50.1,36.0,99,85,63,30.02,29.55,14,4,21,0.06
2014-10-4,54.9,45.6,37.6,39.0,35.8,32.0,95,70,47,29.98,29.88,11,3,21,0.06
2014-10-5,71.6,53.3,37.0,51.0,45.2,36.0,98,77,45,29.87,29.63,9,1,17,0.00
2014-10-6,70.5,59.9,51.2,55.0,50.7,45.0,95,74,42,29.75,29.65,10,2,14,0.00
2014-10-7,76.1,62.2,47.1,62.0,52.7,44.0,97,75,34,29.93,29.67,10,1,18,0.02
2014-10-8,76.4,58.2,44.1,56.0,49.4,43.0,99,76,37,30.11,29.93,5,0,8,0.00
2014-10-9,60.3,57.1,53.9,57.0,54.4,51.0,97,90,78,30.08,29.99,6,2,10,0.66
2014-10-10,56.5,51.3,48.0,54.0,50.0,47.0,98,95,89,30.12,30.02,8,1,10,0.12
2014-10-11,56.1,49.4,43.3,49.0,46.3,42.0,98,89,72,30.20,30.07,6,1,7,0.12
2014-10-12,60.3,54.1,43.4,60.0,53.1,42.0,99,96,90,30.06,29.80,5,1,10,0.10
2014-10-13,67.9,63.9,59.9,67.0,63.3,60.0,100,97,93,29.82,29.42,12,3,28,0.01
2014-10-14,62.4,55.2,52.5,61.0,54.5,52.0,99,97,93,29.69,29.37,12,2,15,0.09
2014-10-15,58.2,53.5,49.0,54.0,51.4,49.0,99,92,77,29.87,29.70,10,2,13,0.11
2014-10-16,74.4,57.1,44.4,56.0,50.3,44.0,100,81,45,29.90,29.70,7,0,8,0.00
2014-10-17,65.8,58.3,48.7,52.0,50.1,47.0,99,75,58,29.96,29.69,9,2,17,0.00
2014-10-18,61.5,52.1,40.9,49.0,45.6,40.0,95,80,57,30.21,29.96,7,2,16,0.00
2014-10-19,64.9,51.1,38.8,50.0,45.7,38.0,99,83,58,30.24,29.99,6,1,11,0.00
2014-10-20,71.7,59.0,46.8,55.0,49.6,45.0,96,74,42,30.00,29.92,12,2,14,0.00
2014-10-21,66.6,54.4,44.1,51.0,46.3,42.0,99,76,49,30.18,29.99,9,2,12,0.00
2014-10-22,62.7,51.0,40.1,47.0,43.6,39.0,96,77,53,30.31,30.17,6,2,10,0.00
2014-10-23,65.1,54.0,42.7,52.0,47.1,41.0,96,79,57,30.20,30.05,4,0,11,0.00
2014-10-24,74.6,61.1,50.4,61.0,54.6,49.0,96,81,51,30.10,29.94,4,0,7,0.00
2014-10-25,79.8,66.4,56.9,65.0,57.7,47.0,99,76,42,30.02,29.94,8,1,10,0.00
2014-10-26,76.2,64.7,49.2,64.0,48.7,39.0,84,58,37,30.02,29.73,12,2,14,0.00
2014-10-27,81.2,71.6,62.5,63.0,61.6,59.0,94,72,52,29.73,29.58,10,2,13,0.00
2014-10-28,71.4,60.1,51.4,64.0,45.4,35.0,97,61,34,30.08,29.70,14,3,18,0.59
2014-10-29,58.0,47.0,36.8,40.0,37.8,35.0,98,73,49,30.19,30.08,9,2,14,0.00
2014-10-30,55.1,45.9,35.6,51.0,42.6,34.0,99,89,64,30.15,29.97,7,1,9,0.04
2014-10-31,47.2,42.4,35.6,45.0,30.9,23.0,97,66,43,30.40,30.05,16,7,28,0.04
2014-11-1,49.3,36.6,29.5,30.0,25.8,22.0,86,66,42,30.49,30.38,9,2,11,0.00
2014-11-2,51.1,41.8,30.2,33.0,30.5,26.0,93,66,44,30.43,30.17,9,3,18,0.00
2014-11-3,72.5,59.0,44.3,51.0,41.2,31.0,63,53,40,30.20,30.01,9,2,16,0.00
2014-11-4,61.2,51.5,42.2,54.0,48.2,41.0,98,89,60,30.18,30.00,8,2,16,0.45
2014-11-5,64.2,49.4,38.9,46.0,41.8,38.0,99,78,41,30.20,29.98,5,1,8,0.01
2014-11-6,52.1,45.2,30.8,43.0,35.2,28.0,90,69,51,30.30,29.97,17,5,31,0.00
2014-11-7,55.3,41.5,27.4,39.0,32.8,26.0,98,74,46,30.28,29.83,7,1,10,0.00
2014-11-8,50.9,46.0,32.0,42.0,34.7,28.0,87,66,50,30.07,29.80,22,5,26,0.00
2014-11-9,64.4,45.8,30.7,39.0,34.3,28.0,92,67,38,30.05,29.79,7,1,13,0.00
2014-11-10,73.7,58.3,42.9,49.0,43.5,36.0,84,61,34,29.79,29.45,12,3,21,0.00
2014-11-11,60.1,38.2,30.9,48.0,31.8,24.0,90,78,64,30.28,29.60,15,7,23,0.01
2014-11-12,32.0,28.5,25.3,25.0,18.4,12.0,78,66,58,30.44,30.28,12,6,16,0.00
2014-11-13,29.1,25.4,21.2,20.0,16.7,12.0,80,70,58,30.48,30.43,11,4,16,0.00
2014-11-14,35.0,24.8,15.1,20.0,16.1,12.0,91,71,48,30.50,30.39,4,1,9,0.00
2014-11-15,39.5,27.8,17.0,28.0,21.3,13.0,95,78,46,30.41,30.22,7,1,12,0.00
2014-11-16,33.7,29.4,21.2,31.0,27.7,17.0,97,93,81,30.22,30.03,8,1,11,0.01
2014-11-17,24.3,19.8,17.1,18.0,13.2,8.0,90,75,64,30.26,30.05,13,4,19,0.01
2014-11-18,27.8,19.4,12.1,14.0,10.4,7.0,78,68,54,30.34,30.08,15,3,20,0.00
2014-11-19,39.8,32.3,20.5,29.0,22.2,14.0,82,67,55,30.22,29.89,14,4,24,0.05
2014-11-20,36.7,26.7,17.1,22.0,18.6,14.0,90,72,54,30.36,30.19,7,1,13,0.00
2014-11-21,41.4,32.3,21.9,37.0,21.9,14.0,87,66,54,30.44,30.19,11,5,18,0.00
2014-11-22,60.4,50.4,40.4,52.0,46.6,37.0,96,87,70,30.18,29.82,10,2,16,0.00
2014-11-23,54.2,52.8,51.2,54.0,51.3,48.0,100,95,82,29.82,29.17,14,2,17,0.44
2014-11-24,53.5,37.9,32.9,54.0,32.9,26.0,100,83,70,29.99,29.16,19,6,29,1.18
2014-11-25,39.5,31.3,25.1,27.0,24.0,21.0,89,75,58,30.22,29.99,10,2,19,0.00
2014-11-26,35.1,31.7,28.4,32.0,29.6,25.0,98,92,84,30.25,29.97,11,3,14,0.01
2014-11-27,32.2,28.4,23.1,29.0,23.3,18.0,96,82,63,30.50,30.26,11,4,17,0.01
2014-11-28,54.8,37.7,23.8,38.0,30.8,21.0,93,78,52,30.41,29.84,11,4,16,0.09
2014-11-29,65.0,51.8,40.6,52.0,45.0,36.0,91,78,59,29.84,29.63,9,2,13,0.00
2014-11-30,68.4,45.4,25.4,58.0,40.7,20.0,96,84,67,30.35,29.68,16,5,23,0.00
2014-12-1,31.0,25.8,22.7,20.0,15.3,13.0,79,65,50,30.64,30.36,13,5,18,0.00
2014-12-2,33.6,28.6,22.9,29.0,22.2,15.0,87,77,69,30.48,30.15,5,1,9,0.00
2014-12-3,42.6,34.0,27.0,30.0,26.9,23.0,97,76,57,30.38,30.19,6,1,8,0.00
2014-12-4,38.4,34.9,32.0,38.0,31.2,22.0,99,87,64,30.38,30.18,8,3,11,0.00
2014-12-5,44.6,41.5,38.6,45.0,41.4,38.0,100,99,99,30.18,30.04,7,2,11,0.42
2014-12-6,40.2,36.4,30.6,40.0,35.6,29.0,100,96,90,30.61,30.18,11,2,11,0.42
2014-12-7,38.5,34.1,28.4,35.0,32.2,28.0,97,93,86,30.60,30.25,7,1,10,0.01
2014-12-8,47.1,41.2,36.9,43.0,38.2,34.0,94,89,79,30.25,30.11,6,1,15,0.02
2014-12-9,39.2,34.0,32.5,33.0,29.5,27.0,90,84,76,30.41,30.19,14,4,17,0.00
2014-12-10,35.7,33.7,32.2,32.0,29.6,28.0,94,85,78,30.41,30.29,3,1,6,0.00
2014-12-11,37.0,32.4,28.1,31.0,28.1,25.0,92,84,75,30.37,30.27,4,1,8,0.00
2014-12-12,49.8,41.3,33.6,41.0,36.2,29.0,90,82,71,30.39,30.27,4,1,7,0.00
2014-12-13,58.5,46.0,35.8,49.0,43.0,35.0,99,89,70,30.27,30.12,4,1,8,0.00
2014-12-14,60.8,52.6,48.2,54.0,50.2,47.0,99,91,77,30.12,29.91,12,3,15,0.00
2014-12-15,51.4,48.7,41.8,50.0,47.4,39.0,98,95,84,29.93,29.60,23,6,28,0.33
2014-12-16,41.9,35.1,30.1,39.0,31.8,25.0,95,87,80,30.31,29.74,13,5,20,0.00
2014-12-17,34.4,30.1,27.6,27.0,25.4,24.0,89,83,74,30.36,30.28,8,2,14,0.00
2014-12-18,34.3,30.4,27.8,29.0,26.9,24.0,91,86,81,30.32,30.23,6,2,7,0.01
2014-12-19,36.4,33.1,29.8,31.0,30.0,28.0,93,88,82,30.34,30.25,5,1,6,0.00
2014-12-20,41.3,37.3,33.2,36.0,33.8,30.0,91,87,82,30.28,30.21,5,2,8,0.00
2014-12-21,44.3,40.9,39.2,38.0,36.2,35.0,89,83,77,30.22,29.90,12,4,17,0.00
2014-12-22,48.8,43.8,38.4,49.0,42.1,35.0,99,94,78,29.89,29.49,14,4,14,0.30
2014-12-23,51.5,43.7,37.7,47.0,41.3,37.0,99,91,75,29.77,29.54,6,1,12,0.31
2014-12-24,39.3,37.6,36.9,37.0,35.3,32.0,96,91,80,29.85,29.65,8,3,15,0.00
2014-12-25,54.2,41.9,31.4,37.0,34.3,30.0,94,76,47,30.02,29.85,9,2,14,0.00
2014-12-26,60.7,48.5,37.9,48.0,42.7,36.0,96,81,61,30.07,29.96,7,2,15,0.09
2014-12-27,48.9,40.7,32.6,48.0,38.8,28.0,98,93,82,30.23,30.00,14,3,17,0.07
2014-12-28,37.5,30.2,23.9,29.0,26.0,22.0,96,85,70,30.26,30.19,8,2,12,0.07
2014-12-29,38.7,29.4,20.9,29.0,24.4,20.0,98,83,59,30.48,30.25,7,2,12,0.00
2014-12-30,30.1,23.0,16.5,26.0,14.9,5.0,86,72,56,30.75,30.48,11,5,16,0.00
2014-12-31,27.9,18.9,10.7,14.0,7.1,5.0,79,61,40,30.73,30.36,7,2,12,0.00
2015-1-1,36.7,29.1,21.5,26.0,18.8,14.0,76,66,51,30.36,30.17,8,2,17,0.00
2015-1-2,40.8,36.0,33.0,35.0,30.5,26.0,97,81,66,30.32,30.07,6,2,10,0.01